Terminal Aerodrome Forecast
Issued by NWS

Current Version | Previous Version | Text Only | Print | Product List | Glossary On
Versions: 1 2 3 4 5 6 7 8 9 10 11 12 13 14 15 16 17 18 19 20 21
000
FTUS41 KBTV 300521
TAFPBG
TAF
KPBG 300521Z 3006/3106 35009KT P6SM FEW020 OVC060
     FM301400 36009KT P6SM FEW045 SCT150=

USA.gov is the U.S. government's official web portal to all federal, state and local government web resources and services.